Time;durP1;ratioP1;P1;durP2;ratioP2;P2;SDS_P1;SDS_P2;PMS_P1;PMS_P2;Temp;Humidity;BMP_temperature;BMP_pressure;BME280_temperature;BME280_humidity;BME280_pressure;Samples;Min_cycle;Max_cycle;Signal;HPM_P1;HPM_P2
2021/04/05 10:25:42;;;;;;;5.88;2.35;;;;;;;;;;5015508;27;20341;-53
2021/04/05 10:28:08;;;;;;;3.28;2.08;;;;;;;;;;4987207;28;20113;-56
2021/04/05 10:30:35;;;;;;;3.17;2.03;;;;;;;;;;4989411;28;20316;-53
2021/04/05 10:33:04;;;;;;;3.17;2.10;;;;;;;;;;5000855;28;20510;-56
2021/04/05 10:35:30;;;;;;;6.10;2.10;;;;;;;;;;5021102;28;20020;-56
2021/04/05 10:48:13;;;;;;;6.25;2.28;;;;;;;;;;5110365;27;20369;-70
2021/04/05 10:50:44;;;;;;;6.32;2.10;;;;;;;;;;5084397;28;20023;-70
2021/04/05 10:53:12;;;;;;;5.07;2.25;;;;;;;;;;5087727;28;20085;-72
2021/04/05 10:55:39;;;;;;;3.20;1.90;;;;;;;;;;5087669;28;20107;-71
2021/04/05 10:58:05;;;;;;;3.55;2.20;;;;;;;;;;5074916;28;20216;-72
2021/04/05 11:00:38;;;;;;;6.03;2.13;;;;;;;;;;5094493;28;20082;-72
2021/04/05 11:03:13;;;;;;;5.20;1.93;;;;;;;;;;5090340;28;20063;-71
2021/04/05 11:05:42;;;;;;;3.85;2.10;;;;;;;;;;5087209;28;20276;-71
2021/04/05 11:08:09;;;;;;;3.97;1.85;;;;;;;;;;5088192;28;20036;-71
2021/04/05 11:10:36;;;;;;;5.22;2.03;;;;;;;;;;5084685;28;20040;-71
2021/04/05 11:13:28;;;;;;;3.45;1.83;;;;;;;;;;5082808;28;20264;-70
2021/04/05 11:15:55;;;;;;;3.08;1.90;;;;;;;;;;5074611;28;20048;-70
2021/04/05 11:18:22;;;;;;;4.85;2.10;;;;;;;;;;5088333;28;20033;-70
2021/04/05 11:20:50;;;;;;;7.78;2.10;;;;;;;;;;5087639;28;20031;-69
2021/04/05 11:23:18;;;;;;;3.45;2.10;;;;;;;;;;5074670;28;20016;-70
2021/04/05 11:27:14;;;;;;;6.88;2.00;;;;;;;13.10;27.01;94432.44;5049210;27;75141;-68
2021/04/05 11:29:44;;;;;;;5.53;2.30;;;;;;;12.71;27.59;94415.66;5027311;28;20040;-69
2021/04/05 11:32:15;;;;;;;4.80;2.00;;;;;;;13.50;26.71;94416.41;5027626;28;20121;-68
2021/04/05 11:34:43;;;;;;;4.80;2.20;;;;;;;13.27;27.12;94416.56;5026832;28;20049;-69
2021/04/05 11:37:14;;;;;;;2.85;2.00;;;;;;;13.58;26.63;94405.03;5028624;28;20045;-69
2021/04/05 11:39:44;;;;;;;4.13;2.00;;;;;;;13.18;27.36;94402.59;5026579;28;20752;-69
2021/04/05 11:42:11;;;;;;;7.47;2.30;;;;;;;12.95;26.99;94386.91;5027917;28;20053;-68
2021/04/05 11:44:51;;;;;;;4.82;2.53;;;;;;;13.42;27.00;94382.84;5024026;28;20033;-68
2021/04/05 11:47:19;;;;;;;6.25;2.15;;;;;;;13.74;27.17;94383.41;5025972;28;20038;-68
2021/04/05 11:49:46;;;;;;;6.25;1.98;;;;;;;14.49;25.36;94366.97;5027448;28;20622;-68
2021/04/05 11:52:20;;;;;;;5.53;2.13;;;;;;;14.76;24.75;94370.25;5028230;28;20502;-68
2021/04/05 11:55:01;;;;;;;7.35;2.00;;;;;;;14.54;25.56;94369.44;5014663;28;20061;-68
2021/04/05 11:57:38;;;;;;;3.95;2.20;;;;;;;15.02;24.96;94362.84;5025436;28;20045;-69
2021/04/05 12:00:10;;;;;;;3.83;2.08;;;;;;;14.70;24.91;94362.50;5026847;28;20042;-68
2021/04/05 12:02:44;;;;;;;4.97;2.35;;;;;;;14.28;25.50;94346.56;5025961;28;20057;-68
2021/04/05 12:05:18;;;;;;;5.68;1.90;;;;;;;13.93;26.50;94352.03;5023904;28;20050;-69
2021/04/05 12:07:47;;;;;;;3.83;2.00;;;;;;;13.87;26.09;94385.03;5027791;28;20077;-68
2021/04/05 12:10:23;;;;;;;4.18;2.25;;;;;;;13.72;23.98;94348.53;5027570;28;20044;-68
2021/04/05 12:13:09;;;;;;;6.00;2.15;;;;;;;13.59;23.95;94359.03;5042914;28;20396;-68
2021/04/05 12:15:36;;;;;;;6.00;2.20;;;;;;;14.23;24.26;94354.69;5027459;28;20049;-68
2021/04/05 12:18:03;;;;;;;7.45;2.30;;;;;;;13.67;25.14;94339.69;5027785;28;20095;-68
2021/04/05 12:20:31;;;;;;;6.72;2.20;;;;;;;14.23;23.71;94338.81;5025473;28;20046;-68
2021/04/05 12:22:59;;;;;;;3.85;2.00;;;;;;;14.39;23.71;94325.78;5024636;28;20046;-68
2021/04/05 12:25:28;;;;;;;3.40;2.17;;;;;;;14.36;23.99;94337.78;5017822;28;63743;-67
2021/04/05 12:27:59;;;;;;;2.83;1.98;;;;;;;14.09;23.83;94327.69;5007061;28;20049;-68
2021/04/05 12:30:27;;;;;;;7.05;2.13;;;;;;;14.49;24.27;94319.34;5007638;28;20045;-68
2021/04/05 12:32:53;;;;;;;4.07;2.00;;;;;;;14.67;24.57;94310.19;5011269;28;20042;-69
2021/04/05 12:35:21;;;;;;;4.80;2.05;;;;;;;14.50;23.07;94299.72;5005914;28;20038;-69
2021/04/05 12:38:01;;;;;;;4.78;2.05;;;;;;;15.00;22.43;94309.44;4992285;28;20054;-69
2021/04/05 12:40:31;;;;;;;4.72;1.80;;;;;;;15.44;22.38;94308.22;4995663;28;20049;-68
2021/04/05 12:43:13;;;;;;;3.83;2.03;;;;;;;14.72;23.22;94296.75;4976519;28;20420;-68
2021/04/05 12:45:48;;;;;;;3.47;1.80;;;;;;;15.55;22.66;94301.38;4975234;28;20480;-68
2021/04/05 12:48:13;;;;;;;6.15;2.20;;;;;;;15.44;22.15;94292.31;4988375;28;20073;-69
2021/04/05 12:50:40;;;;;;;7.10;2.10;;;;;;;15.65;21.79;94298.28;4995066;28;20051;-68
2021/04/05 12:53:09;;;;;;;2.30;1.80;;;;;;;15.19;21.58;94276.38;4994665;28;20042;-71
2021/04/05 12:55:39;;;;;;;3.45;1.63;;;;;;;15.79;21.36;94279.44;4984660;28;20047;-69
2021/04/05 12:58:06;;;;;;;3.97;1.80;;;;;;;15.15;20.80;94281.53;4999478;28;20050;-70
2021/04/05 13:00:37;;;;;;;4.53;2.17;;;;;;;14.90;21.41;94294.72;4994702;28;20054;-68
2021/04/05 13:03:17;;;;;;;8.38;1.90;;;;;;;14.61;21.18;94274.41;4994086;28;20081;-68
2021/04/05 13:06:05;;;;;;;3.38;1.70;;;;;;;14.57;20.83;94278.78;4989115;28;20127;-69
2021/04/05 13:08:39;;;;;;;4.97;2.00;;;;;;;14.70;21.39;94277.75;4994082;28;20042;-70
2021/04/05 13:11:18;;;;;;;5.50;1.80;;;;;;;15.03;20.07;94263.75;4993567;28;20515;-69
2021/04/05 13:13:50;;;;;;;4.22;1.90;;;;;;;15.03;20.90;94290.22;4991385;28;20031;-69
2021/04/05 13:16:39;;;;;;;3.53;1.70;;;;;;;15.09;20.87;94284.75;4989518;28;20054;-69
2021/04/05 13:19:17;;;;;;;7.40;1.80;;;;;;;13.90;21.50;94278.63;4989497;28;20583;-69
2021/04/05 13:21:45;;;;;;;4.65;1.90;;;;;;;14.04;21.78;94263.28;4990912;28;20042;-71
2021/04/05 13:24:23;;;;;;;2.83;2.03;;;;;;;14.26;22.17;94271.25;4989484;28;20494;-70
2021/04/05 13:26:57;;;;;;;6.07;1.90;;;;;;;14.41;22.27;94269.88;4983566;28;20046;-69
2021/04/05 13:29:25;;;;;;;3.43;1.93;;;;;;;14.34;22.32;94271.19;4993462;28;20042;-68
2021/04/05 13:31:55;;;;;;;5.63;1.85;;;;;;;13.69;23.21;94273.28;5007892;28;20387;-68
2021/04/05 13:34:23;;;;;;;4.03;1.70;;;;;;;14.07;23.19;94276.97;4988380;28;20602;-69
2021/04/05 13:36:52;;;;;;;3.90;1.70;;;;;;;14.15;23.10;94262.91;5007817;28;20046;-69
2021/04/05 13:39:24;;;;;;;5.30;1.70;;;;;;;13.92;23.41;94243.91;4991109;28;20046;-69
2021/04/05 13:41:58;;;;;;;3.97;1.52;;;;;;;14.04;23.02;94268.59;4991311;28;20484;-69
2021/04/05 13:44:29;;;;;;;7.25;2.88;;;;;;;13.66;24.20;94261.50;4992163;28;20057;-69
2021/04/05 13:46:59;;;;;;;6.35;2.13;;;;;;;13.69;23.58;94274.06;4978172;28;20045;-69
2021/04/05 13:49:34;;;;;;;5.22;1.80;;;;;;;13.74;24.87;94281.03;4992259;28;20045;-71
2021/04/05 13:52:02;;;;;;;5.32;2.00;;;;;;;12.95;24.76;94270.72;4991211;28;20046;-69
2021/04/05 13:54:29;;;;;;;5.07;2.20;;;;;;;12.96;24.92;94269.66;4984720;28;20606;-69
2021/04/05 13:57:00;;;;;;;3.58;2.20;;;;;;;13.23;25.29;94272.22;4991989;28;20047;-69
2021/04/05 13:59:26;;;;;;;6.97;2.20;;;;;;;13.23;25.15;94262.44;4992781;28;20035;-69
2021/04/05 14:01:53;;;;;;;4.47;1.92;;;;;;;13.05;25.66;94272.25;4989547;28;20054;-69
2021/04/05 14:04:20;;;;;;;6.93;1.95;;;;;;;12.86;25.83;94269.97;4992073;28;20459;-69
2021/04/05 14:06:52;;;;;;;3.17;1.70;;;;;;;12.70;26.13;94272.34;4992522;28;20488;-68
2021/04/05 14:09:29;;;;;;;6.68;2.30;;;;;;;12.80;26.74;94263.28;4987213;28;20367;-69
2021/04/05 14:11:56;;;;;;;9.52;2.30;;;;;;;12.77;26.72;94280.56;4985650;28;20046;-69
2021/04/05 14:14:24;;;;;;;3.33;1.75;;;;;;;12.70;27.00;94272.34;4992089;28;20061;-69
2021/04/05 14:16:58;;;;;;;6.38;2.00;;;;;;;12.37;27.83;94285.22;4975410;28;20057;-68
2021/04/05 14:19:45;;;;;;;4.40;2.22;;;;;;;12.45;27.88;94271.25;4989705;28;20132;-70
2021/04/05 14:22:29;;;;;;;5.07;2.28;;;;;;;12.38;28.67;94260.41;4988885;28;20038;-70
2021/04/05 14:24:58;;;;;;;4.97;2.08;;;;;;;12.30;28.92;94260.09;4987996;28;20117;-70
2021/04/05 14:27:42;;;;;;;6.80;2.20;;;;;;;12.18;28.98;94262.56;4990167;28;20744;-68
2021/04/05 14:30:11;;;;;;;4.22;1.90;;;;;;;12.15;29.19;94257.91;4986479;28;20045;-68
2021/04/05 14:32:46;;;;;;;3.35;2.10;;;;;;;12.18;29.69;94253.88;4987622;28;20034;-67
2021/04/05 14:35:12;;;;;;;;;;;;;;;12.24;29.74;94240.25;4988528;28;20117;-67
2021/04/05 14:37:44;;;;;;;3.08;2.00;;;;;;;12.11;29.89;94257.75;4990230;28;19922;-68
2021/04/05 14:40:14;;;;;;;6.60;2.80;;;;;;;12.04;31.10;94277.75;4985589;28;20065;-68
2021/04/05 14:42:44;;;;;;;6.57;2.17;;;;;;;11.78;30.67;94254.75;4985892;28;20061;-70
2021/04/05 14:45:12;;;;;;;5.90;2.17;;;;;;;11.92;30.61;94244.84;4985966;28;20105;-70
2021/04/05 14:47:41;;;;;;;6.85;2.30;;;;;;;11.98;30.53;94255.25;4987346;28;20046;-68
2021/04/05 14:50:08;;;;;;;8.23;2.70;;;;;;;11.65;30.69;94255.63;4991438;28;20050;-67
2021/04/05 14:52:40;;;;;;;5.78;2.35;;;;;;;11.59;31.40;94244.44;4991296;28;20058;-67
2021/04/05 14:55:08;;;;;;;5.82;2.53;;;;;;;11.36;32.03;94233.22;5001714;28;20077;-69
2021/04/05 14:57:42;;;;;;;7.22;3.00;;;;;;;11.58;32.21;94256.84;4985680;28;20057;-68
2021/04/05 15:00:32;;;;;;;8.27;2.45;;;;;;;11.52;32.27;94231.75;4986374;28;20046;-67
2021/04/05 15:03:05;;;;;;;8.43;2.30;;;;;;;11.56;32.44;94216.84;4983961;28;20038;-67
2021/04/05 15:05:47;;;;;;;7.78;2.47;;;;;;;11.68;32.12;94239.19;4982788;28;20125;-68
2021/04/05 15:08:22;;;;;;;4.18;2.22;;;;;;;11.59;32.24;94226.81;4991438;28;20042;-68
2021/04/05 15:10:52;;;;;;;;;;;;;;;11.59;31.98;94216.25;4985371;28;20054;-68
2021/04/05 15:13:19;;;;;;;5.28;2.30;;;;;;;11.55;32.16;94231.13;4983894;28;19968;-68
2021/04/05 15:15:46;;;;;;;5.63;2.40;;;;;;;11.60;32.00;94233.59;4982929;28;20061;-68
2021/04/05 15:18:14;;;;;;;4.82;2.40;;;;;;;11.71;32.56;94228.03;4989504;28;20137;-68
2021/04/05 15:20:44;;;;;;;4.20;2.00;;;;;;;11.78;32.44;94238.94;4990016;28;20494;-68
2021/04/05 15:23:13;;;;;;;9.00;2.40;;;;;;;11.68;32.07;94233.94;5006171;28;20049;-67
2021/04/05 15:25:41;;;;;;;8.40;2.83;;;;;;;11.47;32.21;94234.50;4988004;28;20046;-68
2021/04/05 15:28:11;;;;;;;5.55;2.60;;;;;;;11.39;31.64;94232.63;5005007;28;20042;-68
2021/04/05 15:30:42;;;;;;;7.97;2.25;;;;;;;11.33;32.29;94223.31;4989669;28;20050;-68
2021/04/05 15:33:08;;;;;;;5.80;2.10;;;;;;;11.35;31.79;94216.66;4984089;28;20043;-68
2021/04/05 15:35:35;;;;;;;7.70;2.33;;;;;;;11.28;32.12;94237.41;4986980;28;20519;-68
2021/04/05 15:38:05;;;;;;;5.70;2.28;;;;;;;11.21;32.62;94222.03;4989734;28;20047;-68
2021/04/05 15:40:39;;;;;;;6.38;2.65;;;;;;;11.11;32.16;94216.28;4990308;28;20054;-68
2021/04/05 15:43:48;;;;;;;4.00;2.08;;;;;;;11.16;32.89;94224.81;4978614;28;20062;-68
2021/04/05 15:46:14;;;;;;;4.63;2.30;;;;;;;11.11;31.80;94224.94;4981695;28;20105;-68
2021/04/05 15:48:45;;;;;;;3.58;2.00;;;;;;;11.05;32.70;94223.53;4990323;28;20423;-68
2021/04/05 15:51:20;;;;;;;5.70;2.30;;;;;;;10.99;32.59;94219.44;4991687;28;20042;-68
2021/04/05 15:53:52;;;;;;;;;;;;;;;11.00;33.03;94226.28;4984707;28;20054;-68
2021/04/05 15:56:32;;;;;;;7.93;3.08;;;;;;;10.84;33.16;94202.97;4986798;28;20013;-68
2021/04/05 15:58:58;;;;;;;4.25;2.08;;;;;;;10.92;32.97;94209.38;5005301;28;20057;-68
2021/04/05 16:01:46;;;;;;;8.40;2.58;;;;;;;10.86;33.27;94227.16;4991230;28;20054;-68
2021/04/05 16:04:32;;;;;;;6.47;2.38;;;;;;;10.77;33.75;94207.88;4985148;28;20046;-68
2021/04/05 16:07:07;;;;;;;6.47;2.47;;;;;;;10.74;33.67;94219.03;4990474;28;20042;-68
2021/04/05 16:09:41;;;;;;;5.43;2.65;;;;;;;10.68;33.99;94220.25;4990328;28;20038;-69
2021/04/05 16:12:34;;;;;;;6.25;2.50;;;;;;;10.47;33.90;94231.22;4991198;28;20488;-69
2021/04/05 16:15:08;;;;;;;9.05;3.13;;;;;;;10.31;34.60;94232.66;4982015;28;20443;-69
2021/04/05 16:17:57;;;;;;;7.93;2.73;;;;;;;10.17;34.53;94238.75;4993876;28;20039;-69
2021/04/05 16:20:26;;;;;;;6.38;2.70;;;;;;;10.03;34.17;94233.53;4985971;28;20054;-68
2021/04/05 16:22:57;;;;;;;5.78;2.92;;;;;;;10.20;34.50;94232.88;4993520;28;20397;-68
2021/04/05 16:25:31;;;;;;;8.00;3.33;;;;;;;9.91;34.77;94240.38;4984885;28;20551;-68
2021/04/05 16:28:00;;;;;;;6.35;2.67;;;;;;;9.99;34.48;94237.03;4983503;28;20128;-68
2021/04/05 16:30:33;;;;;;;12.82;3.13;;;;;;;9.98;34.36;94230.22;4993702;28;20083;-68
2021/04/05 16:33:05;;;;;;;7.95;2.78;;;;;;;9.92;34.72;94231.41;5005148;28;20049;-68
2021/04/05 16:35:35;;;;;;;7.90;3.00;;;;;;;9.88;35.11;94232.00;4990507;28;20042;-68
2021/04/05 16:38:06;;;;;;;5.78;2.60;;;;;;;9.88;35.48;94247.78;4993995;28;20298;-68
2021/04/05 16:40:37;;;;;;;8.27;2.63;;;;;;;9.84;35.53;94253.91;4993197;28;20068;-68
2021/04/05 16:43:28;;;;;;;5.63;2.75;;;;;;;9.35;37.88;94282.44;4993639;28;20046;-67
2021/04/05 16:45:56;;;;;;;7.75;3.40;;;;;;;9.06;40.88;94286.09;4985164;28;20034;-67
2021/04/05 16:48:23;;;;;;;11.07;3.58;;;;;;;8.60;42.86;94279.75;4993939;28;20415;-70
2021/04/05 16:50:49;;;;;;;9.23;3.58;;;;;;;8.53;43.38;94275.97;4993560;28;20050;-70
2021/04/05 16:53:25;;;;;;;11.00;3.00;;;;;;;8.48;44.01;94277.59;4992957;28;20088;-70
2021/04/05 16:55:56;;;;;;;8.05;2.90;;;;;;;8.44;44.23;94276.59;4990405;28;20053;-70
2021/04/05 16:58:33;;;;;;;5.55;3.03;;;;;;;8.40;44.05;94265.09;4993943;28;20121;-70
2021/04/05 17:01:00;;;;;;;11.85;3.15;;;;;;;-146.47;100.00;65468.63;4992331;28;20488;-67
2021/04/05 17:03:29;;;;;;;9.98;2.50;;;;;;;-146.47;100.00;65468.63;4992431;28;20070;-70
2021/04/05 17:06:08;;;;;;;6.57;2.88;;;;;;;-146.47;100.00;65468.63;4989327;28;20097;-70
2021/04/05 17:08:39;;;;;;;5.38;3.25;;;;;;;-146.47;100.00;65468.63;4993105;28;20054;-69
2021/04/05 17:11:13;;;;;;;9.93;3.28;;;;;;;-146.47;100.00;65468.63;4991739;28;20043;-69
2021/04/05 17:13:44;;;;;;;12.10;3.63;;;;;;;-146.47;100.00;65468.63;4985699;28;20408;-69
2021/04/05 17:16:25;;;;;;;6.65;2.65;;;;;;;-146.47;100.00;65468.63;5006382;28;20492;-69
2021/04/05 17:18:52;;;;;;;9.48;3.13;;;;;;;-146.47;100.00;65468.63;4993180;28;20042;-70
2021/04/05 17:21:19;;;;;;;5.93;2.80;;;;;;;-146.47;100.00;65468.63;4992961;28;20042;-69
2021/04/05 17:23:47;;;;;;;13.02;3.75;;;;;;;-146.47;100.00;65468.63;4985079;28;20038;-69
2021/04/05 17:26:29;;;;;;;8.75;4.13;;;;;;;-146.47;100.00;65468.63;4991076;28;20042;-69
2021/04/05 17:29:25;;;;;;;11.10;3.95;;;;;;;-146.47;100.00;65468.63;4992559;28;20077;-69
2021/04/05 17:32:17;;;;;;;11.18;5.07;;;;;;;-146.47;100.00;65468.63;4995101;28;20058;-69
2021/04/05 17:35:08;;;;;;;12.20;5.93;;;;;;;-146.47;100.00;65468.63;4989772;28;20038;-69
2021/04/05 17:37:39;;;;;;;13.23;6.88;;;;;;;-146.47;100.00;65468.63;4980912;28;20062;-70
2021/04/05 17:40:07;;;;;;;13.35;6.60;;;;;;;-146.47;100.00;65468.63;4989453;28;20039;-70
2021/04/05 17:42:48;;;;;;;16.42;7.50;;;;;;;-146.47;100.00;65468.63;5016983;28;20039;-69
2021/04/05 17:45:19;;;;;;;12.60;6.18;;;;;;;-146.47;100.00;65468.63;4988440;28;20508;-70
2021/04/05 17:47:45;;;;;;;11.63;7.20;;;;;;;-146.47;100.00;65468.63;4991883;28;20034;-70
2021/04/05 17:50:18;;;;;;;16.27;7.85;;;;;;;-146.47;100.00;65468.63;4991899;28;20039;-69
2021/04/05 17:53:07;;;;;;;13.35;7.50;;;;;;;-146.47;100.00;65468.63;4991358;28;20038;-69
2021/04/05 17:55:51;;;;;;;14.48;6.30;;;;;;;-146.47;100.00;65468.63;4984765;28;20047;-69
2021/04/05 17:58:35;;;;;;;13.68;8.30;;;;;;;-146.47;100.00;65468.63;4991944;28;20054;-69
2021/04/05 18:01:16;;;;;;;8.55;5.53;;;;;;;-146.47;100.00;65468.63;4988619;28;20369;-69
2021/04/05 18:04:05;;;;;;;9.15;4.88;;;;;;;-146.47;100.00;65468.63;4991603;28;20034;-69
2021/04/05 18:06:42;;;;;;;6.10;3.20;;;;;;;-146.47;100.00;65468.63;4983961;28;20038;-69
2021/04/05 18:09:17;;;;;;;5.18;2.70;;;;;;;-146.47;100.00;65468.63;4992630;28;20043;-69
2021/04/05 18:11:54;;;;;;;4.35;2.10;;;;;;;-146.47;100.00;65468.63;4991915;28;20038;-70
2021/04/05 18:14:38;;;;;;;2.08;1.52;;;;;;;-146.47;100.00;65468.63;4986040;28;20038;-70
2021/04/05 18:17:30;;;;;;;3.80;1.73;;;;;;;-146.47;100.00;65468.63;4988229;28;20054;-69
2021/04/05 18:20:27;;;;;;;2.40;1.60;;;;;;;-146.47;100.00;65468.63;4992684;28;20061;-68
2021/04/05 18:23:19;;;;;;;2.35;1.63;;;;;;;-146.47;100.00;65468.63;4989561;28;20045;-69
2021/04/05 18:26:29;;;;;;;2.55;1.90;;;;;;;-146.47;100.00;65468.63;4991192;28;20121;-68
2021/04/05 18:29:28;;;;;;;3.00;2.08;;;;;;;-146.47;100.00;65468.63;5000488;28;20049;-68
2021/04/05 18:32:34;;;;;;;4.03;2.35;;;;;;;-146.47;100.00;65468.63;5000843;28;20058;-68
2021/04/05 18:35:05;;;;;;;8.50;2.58;;;;;;;-146.47;100.00;65468.63;4989149;28;20500;-71
2021/04/05 18:37:33;;;;;;;3.75;2.33;;;;;;;-146.47;100.00;65468.63;5003967;28;20046;-68
2021/04/05 18:39:59;;;;;;;3.55;2.13;;;;;;;-146.47;100.00;65468.63;4988830;28;20045;-68
2021/04/05 18:42:27;;;;;;;3.15;1.77;;;;;;;-146.47;100.00;65468.63;4987664;28;20042;-68
2021/04/05 18:45:09;;;;;;;3.30;2.05;;;;;;;-146.47;100.00;65468.63;4988788;28;20456;-68
2021/04/05 18:47:41;;;;;;;3.88;2.30;;;;;;;-146.47;100.00;65468.63;4991015;28;20042;-68
2021/04/05 18:50:20;;;;;;;4.80;2.67;;;;;;;-146.47;100.00;65468.63;4991148;28;20046;-68
2021/04/05 18:53:26;;;;;;;3.80;2.53;;;;;;;-146.47;100.00;65468.63;4987182;28;20531;-68
2021/04/05 18:56:06;;;;;;;2.85;1.80;;;;;;;-146.47;100.00;65468.63;4988087;28;20042;-68
2021/04/05 18:58:34;;;;;;;2.95;2.10;;;;;;;-146.47;100.00;65468.63;4989396;28;20046;-67
2021/04/05 19:01:06;;;;;;;4.20;2.75;;;;;;;-146.47;100.00;65468.63;4990232;28;20045;-69
2021/04/05 19:03:41;;;;;;;4.00;2.60;;;;;;;-146.47;100.00;65468.63;5004206;28;20070;-68
2021/04/05 19:06:19;;;;;;;3.17;2.20;;;;;;;-146.47;100.00;65468.63;4988553;28;20397;-66
2021/04/05 19:08:53;;;;;;;4.50;2.80;;;;;;;-146.47;100.00;65468.63;4989988;28;20104;-68
2021/04/05 19:12:00;;;;;;;3.33;2.28;;;;;;;-146.47;100.00;65468.63;4989193;28;20046;-68
2021/04/05 19:14:58;;;;;;;5.22;3.05;;;;;;;-146.47;100.00;65468.63;4980838;28;20121;-68
2021/04/05 19:17:42;;;;;;;4.05;2.50;;;;;;;-146.47;100.00;65468.63;4985556;28;20042;-68
2021/04/05 19:20:10;;;;;;;3.13;2.40;;;;;;;-146.47;100.00;65468.63;4990752;28;20046;-68
2021/04/05 19:23:02;;;;;;;4.07;2.15;;;;;;;-146.47;100.00;65468.63;4983942;28;20042;-66
2021/04/05 19:25:42;;;;;;;5.43;2.78;;;;;;;-146.47;100.00;65468.63;4987461;28;20058;-67
2021/04/05 19:28:20;;;;;;;4.43;2.67;;;;;;;-146.47;100.00;65468.63;4991817;28;20407;-68
2021/04/05 19:31:13;;;;;;;3.38;2.50;;;;;;;-146.47;100.00;65468.63;4991364;28;20065;-68
2021/04/05 19:33:44;;;;;;;5.28;3.25;;;;;;;-146.47;100.00;65468.63;4988739;28;20039;-69
2021/04/05 19:36:31;;;;;;;4.07;2.60;;;;;;;-146.47;100.00;65468.63;4991233;28;20043;-68
2021/04/05 19:39:27;;;;;;;4.28;2.55;;;;;;;-146.47;100.00;65468.63;4991427;28;20038;-68
2021/04/05 19:42:07;;;;;;;3.78;2.65;;;;;;;-146.47;100.00;65468.63;4982516;28;20066;-67
2021/04/05 19:45:30;;;;;;;5.10;2.78;;;;;;;-146.47;100.00;65468.63;4980387;28;20488;-68
2021/04/05 19:48:34;;;;;;;3.92;2.58;;;;;;;-146.47;100.00;65468.63;4988993;28;20575;-68
2021/04/05 19:51:30;;;;;;;6.05;3.10;;;;;;;-146.47;100.00;65468.63;5010596;28;20046;-69
2021/04/05 19:54:36;;;;;;;4.47;2.15;;;;;;;-146.47;100.00;65468.63;4992642;28;20045;-69
2021/04/05 19:57:12;;;;;;;4.75;2.65;;;;;;;-146.47;100.00;65468.63;5007501;28;20057;-69
2021/04/05 19:59:57;;;;;;;3.97;2.40;;;;;;;-146.47;100.00;65468.63;4995823;28;20120;-68
2021/04/05 20:02:42;;;;;;;4.90;2.65;;;;;;;-146.47;100.00;65468.63;4995829;28;20046;-71
2021/04/05 20:05:13;;;;;;;4.40;2.65;;;;;;;-146.47;100.00;65468.63;4992241;28;20049;-68
2021/04/05 20:07:49;;;;;;;3.13;2.22;;;;;;;-146.47;100.00;65468.63;4995212;28;20423;-67
2021/04/05 20:10:33;;;;;;;4.65;1.83;;;;;;;-146.47;100.00;65468.63;4994185;28;20130;-69
2021/04/05 20:13:43;;;;;;;7.13;2.60;;;;;;;-146.47;100.00;65468.63;4976569;28;20051;-70
2021/04/05 20:16:17;;;;;;;4.35;2.70;;;;;;;-146.47;100.00;65468.63;4980348;28;20554;-68
2021/04/05 20:19:05;;;;;;;7.35;2.58;;;;;;;-146.47;100.00;65468.63;4976104;28;20054;-69
2021/04/05 20:21:37;;;;;;;4.13;2.45;;;;;;;-146.47;100.00;65468.63;4987189;28;20062;-68
2021/04/05 20:24:05;;;;;;;4.32;2.88;;;;;;;-146.47;100.00;65468.63;4982904;28;20071;-69
2021/04/05 20:26:36;;;;;;;5.47;3.30;;;;;;;-146.47;100.00;65468.63;4990690;28;20236;-71
2021/04/05 20:29:26;;;;;;;5.10;3.10;;;;;;;-146.47;100.00;65468.63;4992432;28;20089;-69
2021/04/05 20:32:02;;;;;;;6.72;3.30;;;;;;;-146.47;100.00;65468.63;4993303;28;20050;-69
2021/04/05 20:34:50;;;;;;;6.75;3.25;;;;;;;-146.47;100.00;65468.63;4993927;28;20042;-75
2021/04/05 20:37:51;;;;;;;4.40;2.10;;;;;;;-146.47;100.00;65468.63;4994350;28;20050;-72
2021/04/05 20:40:39;;;;;;;3.03;1.90;;;;;;;-146.47;100.00;65468.63;4992536;28;20428;-69
2021/04/05 20:43:26;;;;;;;2.40;1.52;;;;;;;-146.47;100.00;65468.63;4986916;28;20460;-69
2021/04/05 20:46:09;;;;;;;3.03;2.10;;;;;;;-146.47;100.00;65468.63;4982150;28;20109;-69
2021/04/05 20:48:56;;;;;;;4.15;2.10;;;;;;;-146.47;100.00;65468.63;4994269;28;20121;-69
2021/04/05 20:51:31;;;;;;;1.70;1.35;;;;;;;-146.47;100.00;65468.63;4990974;28;20046;-69
2021/04/05 20:54:07;;;;;;;2.35;1.42;;;;;;;-146.47;100.00;65468.63;4988087;28;20057;-69
2021/04/05 20:56:52;;;;;;;2.00;1.50;;;;;;;-146.47;100.00;65468.63;4992843;28;20046;-69
2021/04/05 20:59:35;;;;;;;2.13;1.40;;;;;;;-146.47;100.00;65468.63;4992666;28;20045;-70
2021/04/05 21:02:03;;;;;;;1.27;1.00;;;;;;;-146.47;100.00;65468.63;4985499;28;20463;-69
2021/04/05 21:04:35;;;;;;;3.15;1.90;;;;;;;-146.47;100.00;65468.63;4993231;28;20133;-69
2021/04/05 21:07:02;;;;;;;4.95;1.88;;;;;;;-146.47;100.00;65468.63;4992398;28;20053;-69
2021/04/05 21:09:28;;;;;;;3.03;1.85;;;;;;;-146.47;100.00;65468.63;4991067;28;20495;-69
2021/04/05 21:12:06;;;;;;;6.30;2.15;;;;;;;-146.47;100.00;65468.63;4991735;28;20504;-68
2021/04/05 21:14:40;;;;;;;4.40;1.70;;;;;;;-146.47;100.00;65468.63;4992578;28;20038;-70
2021/04/05 21:17:11;;;;;;;2.75;1.65;;;;;;;-146.47;100.00;65468.63;4989184;28;20050;-70
2021/04/05 21:19:45;;;;;;;2.70;1.40;;;;;;;-146.47;100.00;65468.63;4991972;28;20050;-70
2021/04/05 21:22:12;;;;;;;4.23;1.67;;;;;;;-146.47;100.00;65468.63;4992344;28;20408;-70
2021/04/05 21:24:47;;;;;;;4.00;1.90;;;;;;;-146.47;100.00;65468.63;4984807;28;20515;-70
2021/04/05 21:27:21;;;;;;;4.07;1.70;;;;;;;-146.47;100.00;65468.63;4990525;28;20042;-70
2021/04/05 21:29:56;;;;;;;3.33;1.70;;;;;;;-146.47;100.00;65468.63;4992478;28;20050;-70
2021/04/05 21:32:36;;;;;;;4.72;1.73;;;;;;;-146.47;100.00;65468.63;4989877;28;20074;-71
2021/04/05 21:35:06;;;;;;;6.03;2.22;;;;;;;-146.47;100.00;65468.63;4992416;28;20046;-69
2021/04/05 21:37:43;;;;;;;3.33;1.67;;;;;;;-146.47;100.00;65468.63;4991737;28;20046;-69
2021/04/05 21:40:15;;;;;;;5.13;2.03;;;;;;;-146.47;100.00;65468.63;4992019;28;20038;-70
2021/04/05 21:42:52;;;;;;;3.08;1.80;;;;;;;-146.47;100.00;65468.63;4980845;28;20101;-70
2021/04/05 21:45:26;;;;;;;3.20;1.83;;;;;;;-146.47;100.00;65468.63;4989374;28;20039;-70
2021/04/05 21:47:54;;;;;;;3.65;1.80;;;;;;;-146.47;100.00;65468.63;4987286;28;20046;-70
2021/04/05 21:50:26;;;;;;;4.32;1.80;;;;;;;-146.47;100.00;65468.63;4990676;28;20049;-70
2021/04/05 21:52:53;;;;;;;3.88;1.90;;;;;;;-146.47;100.00;65468.63;4992800;28;20046;-69
2021/04/05 21:55:34;;;;;;;6.00;1.83;;;;;;;-146.47;100.00;65468.63;4988174;28;20049;-70
2021/04/05 21:58:10;;;;;;;6.93;2.03;;;;;;;-146.47;100.00;65468.63;4992657;28;20053;-70
2021/04/05 22:00:45;;;;;;;6.03;1.73;;;;;;;-146.47;100.00;65468.63;4992102;28;20069;-69
2021/04/05 22:03:14;;;;;;;4.45;2.20;;;;;;;-146.47;100.00;65468.63;4992229;28;20445;-70
2021/04/05 22:05:47;;;;;;;3.55;1.98;;;;;;;-146.47;100.00;65468.63;4991308;28;20046;-70
2021/04/05 22:08:17;;;;;;;5.03;2.10;;;;;;;-146.47;100.00;65468.63;4991865;28;20049;-70
2021/04/05 22:10:45;;;;;;;5.22;1.90;;;;;;;-146.47;100.00;65468.63;5005928;28;20046;-70
2021/04/05 22:13:15;;;;;;;4.32;2.03;;;;;;;-146.47;100.00;65468.63;4987683;28;20043;-69
2021/04/05 22:15:43;;;;;;;3.83;2.00;;;;;;;-146.47;100.00;65468.63;4983331;28;20043;-70
2021/04/05 22:18:31;;;;;;;5.15;1.80;;;;;;;-146.47;100.00;65468.63;4978704;28;20101;-70
2021/04/05 22:21:05;;;;;;;3.78;2.13;;;;;;;-146.47;100.00;65468.63;4992044;28;20042;-70
2021/04/05 22:23:34;;;;;;;;;;;;;;;-146.47;100.00;65468.63;4988648;28;20039;-70
2021/04/05 22:26:11;;;;;;;3.53;1.65;;;;;;;-146.47;100.00;65468.63;4990832;28;20000;-70
2021/04/05 22:28:39;;;;;;;6.53;2.20;;;;;;;-146.47;100.00;65468.63;4996388;28;20500;-69
2021/04/05 22:31:14;;;;;;;3.47;1.90;;;;;;;-146.47;100.00;65468.63;4992349;28;20046;-69
2021/04/05 22:34:00;;;;;;;3.05;1.60;;;;;;;-146.47;100.00;65468.63;4985849;28;20042;-70
2021/04/05 22:36:27;;;;;;;4.80;1.65;;;;;;;-146.47;100.00;65468.63;4991472;28;20042;-69
2021/04/05 22:38:57;;;;;;;4.97;1.67;;;;;;;-146.47;100.00;65468.63;4990440;28;20443;-70
2021/04/05 22:41:48;;;;;;;4.10;1.42;;;;;;;-146.47;100.00;65468.63;4991763;28;20118;-69
2021/04/05 22:44:18;;;;;;;4.07;1.80;;;;;;;-146.47;100.00;65468.63;4990856;28;20062;-69
2021/04/05 22:46:50;;;;;;;4.55;2.00;;;;;;;-146.47;100.00;65468.63;4986060;28;20065;-69
2021/04/05 22:49:26;;;;;;;3.50;1.80;;;;;;;-146.47;100.00;65468.63;4991063;28;20046;-69